Time;durP1;ratioP1;P1;durP2;ratioP2;P2;SDS_P1;SDS_P2;PMS_P1;PMS_P2;Temp;Humidity;BMP_temperature;BMP_pressure;BME280_temperature;BME280_humidity;BME280_pressure;Samples;Min_cycle;Max_cycle;Signal;HPM_P1;HPM_P2
2021/07/16 02:46:03;;;;;;;25.07;23.57;;;17.20;99.90;;;;;;5735585;23;20522;-71
2021/07/16 02:48:30;;;;;;;24.93;23.43;;;17.20;99.90;;;;;;4967683;28;20840;-71
2021/07/16 02:50:57;;;;;;;25.83;24.33;;;17.30;99.90;;;;;;4966440;28;20896;-71
2021/07/16 02:53:24;;;;;;;26.70;24.90;;;17.30;99.90;;;;;;4974694;28;20933;-71
2021/07/16 02:55:52;;;;;;;25.10;23.70;;;17.30;99.90;;;;;;4974642;28;21032;-71
2021/07/16 02:58:18;;;;;;;26.30;24.73;;;17.30;99.90;;;;;;4967233;28;20459;-71
2021/07/16 03:00:45;;;;;;;24.50;23.10;;;17.30;99.90;;;;;;4974692;28;20925;-71
2021/07/16 03:03:13;;;;;;;23.50;22.30;;;17.20;99.90;;;;;;4974304;28;20980;-71
2021/07/16 03:05:40;;;;;;;22.90;21.63;;;17.30;99.90;;;;;;4976026;28;20456;-70
2021/07/16 03:08:09;;;;;;;24.77;23.27;;;17.30;99.90;;;;;;4976546;28;20868;-71
2021/07/16 03:10:38;;;;;;;23.47;22.27;;;17.30;99.90;;;;;;4974305;28;20491;-72
2021/07/16 03:13:07;;;;;;;24.77;23.27;;;17.30;99.90;;;;;;4974117;28;20542;-71
2021/07/16 03:15:35;;;;;;;23.93;22.47;;;17.30;99.90;;;;;;4973526;28;20522;-74
2021/07/16 03:18:03;;;;;;;22.63;21.43;;;17.20;99.90;;;;;;4965229;28;20470;-74
2021/07/16 03:20:33;;;;;;;24.87;23.13;;;17.10;99.90;;;;;;4955165;28;20463;-73
2021/07/16 03:23:00;;;;;;;23.40;22.20;;;17.10;99.90;;;;;;4960615;28;20470;-73
2021/07/16 03:25:28;;;;;;;24.73;23.20;;;17.00;99.90;;;;;;4958409;28;20923;-74
2021/07/16 03:27:56;;;;;;;24.80;23.10;;;17.10;99.90;;;;;;4954751;29;20881;-74
2021/07/16 03:30:25;;;;;;;25.73;24.13;;;17.20;99.90;;;;;;4954385;29;20456;-73
2021/07/16 03:32:52;;;;;;;23.27;21.63;;;17.20;99.90;;;;;;4954371;29;20677;-74
2021/07/16 03:35:20;;;;;;;27.13;24.53;;;17.20;99.90;;;;;;4954777;29;20507;-73
2021/07/16 03:37:48;;;;;;;24.73;23.23;;;17.20;99.90;;;;;;4953981;28;20559;-73
2021/07/16 03:40:17;;;;;;;24.70;23.27;;;17.20;99.90;;;;;;4954384;29;20457;-73
2021/07/16 03:42:44;;;;;;;25.00;23.30;;;17.20;99.90;;;;;;4954233;29;20449;-73
2021/07/16 03:45:14;;;;;;;25.40;23.90;;;17.20;99.90;;;;;;4954133;29;20473;-73
2021/07/16 03:47:40;;;;;;;25.00;23.60;;;17.20;99.90;;;;;;4953897;29;21184;-73
2021/07/16 03:50:08;;;;;;;24.30;22.70;;;17.20;99.90;;;;;;4954108;29;20457;-74
2021/07/16 03:52:35;;;;;;;22.63;21.23;;;17.20;99.90;;;;;;4954091;29;21006;-74
2021/07/16 03:55:05;;;;;;;23.17;21.77;;;17.20;99.90;;;;;;4954242;29;20460;-74
2021/07/16 03:57:33;;;;;;;22.63;20.90;;;17.20;99.90;;;;;;4954180;29;20975;-74
2021/07/16 04:00:02;;;;;;;23.37;21.90;;;17.30;99.90;;;;;;4953989;29;20489;-73
2021/07/16 04:02:29;;;;;;;21.23;19.93;;;17.30;99.90;;;;;;4953874;29;20516;-73
2021/07/16 04:04:55;;;;;;;21.30;19.60;;;17.40;99.90;;;;;;4953481;29;20453;-74
2021/07/16 04:07:26;;;;;;;20.77;19.47;;;17.40;99.90;;;;;;4953520;29;20468;-74
2021/07/16 04:09:54;;;;;;;19.73;18.53;;;17.40;99.90;;;;;;4953384;29;20565;-74
2021/07/16 04:12:22;;;;;;;19.73;18.73;;;17.40;99.90;;;;;;4953796;29;20492;-73
2021/07/16 04:14:50;;;;;;;21.43;20.23;;;17.50;99.90;;;;;;4953592;29;20456;-73
2021/07/16 04:17:19;;;;;;;20.13;18.93;;;17.50;99.90;;;;;;4953448;29;20460;-73
2021/07/16 04:19:46;;;;;;;20.60;19.30;;;17.50;99.90;;;;;;4953405;29;20507;-74
2021/07/16 04:22:14;;;;;;;21.07;19.87;;;17.60;99.90;;;;;;4953117;29;20481;-73
2021/07/16 04:24:42;;;;;;;19.87;18.77;;;17.70;99.90;;;;;;4952988;29;20645;-74
2021/07/16 04:27:10;;;;;;;20.07;18.97;;;17.70;99.90;;;;;;4952559;29;20515;-74
2021/07/16 04:29:39;;;;;;;19.70;18.60;;;17.60;99.90;;;;;;4953079;29;20796;-73
2021/07/16 04:32:07;;;;;;;19.83;18.83;;;17.60;99.90;;;;;;4952993;29;20492;-72
2021/07/16 04:34:36;;;;;;;20.53;19.23;;;17.50;99.90;;;;;;4952886;29;20460;-73
2021/07/16 04:37:04;;;;;;;20.33;19.13;;;17.60;99.90;;;;;;4953113;29;20511;-73
2021/07/16 04:39:31;;;;;;;20.50;18.97;;;17.70;99.90;;;;;;4952853;29;20487;-73
2021/07/16 04:41:57;;;;;;;19.00;17.90;;;17.70;99.90;;;;;;4952746;29;20457;-74
2021/07/16 04:44:24;;;;;;;20.27;19.07;;;17.70;99.90;;;;;;4952695;29;20843;-73
2021/07/16 04:46:52;;;;;;;19.90;18.47;;;17.70;99.90;;;;;;4952477;29;20604;-73
2021/07/16 04:49:20;;;;;;;20.17;18.40;;;17.60;99.90;;;;;;4951909;28;20448;-73
2021/07/16 04:51:47;;;;;;;19.23;18.23;;;17.70;99.90;;;;;;4952704;29;20496;-73
2021/07/16 04:54:15;;;;;;;20.90;19.70;;;17.60;99.90;;;;;;4952399;29;20452;-73
2021/07/16 04:56:43;;;;;;;20.73;19.43;;;17.60;99.90;;;;;;4952466;29;20456;-72
2021/07/16 04:59:09;;;;;;;19.23;18.23;;;17.60;99.90;;;;;;4952634;29;20463;-72
2021/07/16 05:01:36;;;;;;;19.73;18.53;;;17.60;99.90;;;;;;4952262;29;20456;-72
2021/07/16 05:04:05;;;;;;;18.90;17.70;;;17.70;99.90;;;;;;4952754;29;20491;-73
2021/07/16 05:06:31;;;;;;;18.53;17.63;;;17.70;99.90;;;;;;4952732;29;20453;-72
2021/07/16 05:08:58;;;;;;;19.20;17.93;;;17.90;99.90;;;;;;4952160;29;21013;-73
2021/07/16 05:11:25;;;;;;;20.80;19.70;;;18.10;99.90;;;;;;4952055;29;20492;-73
2021/07/16 05:13:52;;;;;;;19.63;18.60;;;18.40;99.90;;;;;;4952252;29;20511;-73
2021/07/16 05:16:19;;;;;;;20.20;19.07;;;18.60;99.90;;;;;;4952389;29;20453;-74
2021/07/16 05:18:46;;;;;;;20.23;18.70;;;18.70;99.90;;;;;;4952109;29;20484;-73
2021/07/16 05:21:14;;;;;;;20.73;19.33;;;18.80;99.90;;;;;;4952358;29;20457;-73
2021/07/16 05:23:41;;;;;;;20.73;19.43;;;18.80;99.90;;;;;;4951965;29;20819;-73
2021/07/16 05:26:08;;;;;;;21.13;19.83;;;18.90;99.90;;;;;;4951846;29;20453;-74
2021/07/16 05:28:35;;;;;;;20.23;19.17;;;19.00;99.90;;;;;;4952113;29;20467;-73
2021/07/16 05:31:02;;;;;;;22.30;20.70;;;18.90;99.90;;;;;;4951903;29;20460;-73
2021/07/16 05:33:28;;;;;;;22.60;21.30;;;18.90;99.90;;;;;;4952058;29;20460;-72
2021/07/16 05:35:55;;;;;;;22.47;21.27;;;18.80;99.90;;;;;;4951550;29;20495;-74
2021/07/16 05:38:25;;;;;;;21.73;20.27;;;18.80;99.90;;;;;;4951878;29;20514;-74
2021/07/16 05:40:52;;;;;;;21.67;20.27;;;19.00;99.90;;;;;;4949380;29;20895;-72
2021/07/16 05:43:19;;;;;;;21.27;20.07;;;19.00;99.90;;;;;;4952151;29;20452;-72
2021/07/16 05:45:46;;;;;;;23.07;21.57;;;19.20;99.90;;;;;;4951718;29;20472;-73
2021/07/16 05:48:12;;;;;;;23.70;22.10;;;19.30;99.90;;;;;;4951964;29;20464;-73
2021/07/16 05:50:41;;;;;;;24.23;22.53;;;19.20;99.90;;;;;;4951880;29;20456;-74
2021/07/16 05:53:08;;;;;;;22.40;21.10;;;19.00;99.90;;;;;;4951881;29;20495;-74
2021/07/16 05:55:37;;;;;;;24.97;23.37;;;18.60;99.90;;;;;;4951572;29;20922;-72
2021/07/16 05:58:04;;;;;;;25.40;23.63;;;18.60;99.90;;;;;;4952045;29;20872;-72
2021/07/16 06:00:31;;;;;;;24.30;22.60;;;18.60;99.90;;;;;;4953872;28;20463;-72
2021/07/16 06:02:58;;;;;;;25.83;24.13;;;18.70;99.90;;;;;;4958106;29;20448;-73
2021/07/16 06:05:25;;;;;;;26.90;25.00;;;18.70;99.90;;;;;;4958442;28;20459;-73
2021/07/16 06:07:52;;;;;;;24.37;22.97;;;18.70;99.90;;;;;;4958457;29;20456;-73
2021/07/16 06:10:18;;;;;;;25.50;23.90;;;18.90;99.90;;;;;;4958451;29;20452;-74
2021/07/16 06:12:46;;;;;;;23.50;21.87;;;19.20;99.90;;;;;;4957969;29;20483;-73
2021/07/16 06:15:13;;;;;;;23.97;22.47;;;19.20;99.90;;;;;;4958013;29;20456;-73
2021/07/16 06:17:41;;;;;;;23.43;21.93;;;19.20;99.90;;;;;;4958390;29;20519;-72
2021/07/16 06:20:10;;;;;;;24.17;22.57;;;19.30;99.90;;;;;;4958084;28;20448;-73
2021/07/16 06:22:37;;;;;;;24.60;22.90;;;19.40;99.90;;;;;;4958333;28;20452;-73
2021/07/16 06:25:04;;;;;;;23.67;22.13;;;19.50;99.90;;;;;;4958155;28;20515;-73
2021/07/16 06:27:30;;;;;;;21.83;20.43;;;19.80;99.90;;;;;;4958180;28;20511;-73
2021/07/16 06:29:58;;;;;;;23.50;22.00;;;20.20;99.90;;;;;;4958125;28;20481;-73
2021/07/16 06:32:25;;;;;;;22.00;20.70;;;20.00;99.90;;;;;;4957533;28;20499;-73
2021/07/16 06:34:52;;;;;;;22.23;20.90;;;20.30;99.90;;;;;;4957713;29;20890;-74
2021/07/16 06:37:19;;;;;;;23.63;22.13;;;20.20;99.90;;;;;;4957978;29;20511;-74
2021/07/16 06:39:45;;;;;;;24.90;23.30;;;20.30;99.90;;;;;;4957475;29;20468;-74
2021/07/16 06:42:12;;;;;;;21.67;20.47;;;20.60;99.90;;;;;;4957628;28;20456;-73
2021/07/16 06:44:39;;;;;;;24.47;22.83;;;21.10;99.90;;;;;;4957386;28;20883;-73
2021/07/16 06:47:07;;;;;;;22.50;21.30;;;21.20;99.90;;;;;;4957585;29;20495;-73
2021/07/16 06:49:33;;;;;;;23.77;22.07;;;21.40;99.90;;;;;;4957754;29;20451;-73
2021/07/16 06:52:00;;;;;;;25.40;23.70;;;21.20;99.90;;;;;;4957861;28;20531;-73
2021/07/16 06:54:27;;;;;;;23.60;22.10;;;20.80;99.90;;;;;;4957579;29;20529;-73
2021/07/16 06:56:54;;;;;;;23.90;22.10;;;20.80;99.90;;;;;;4957657;29;20456;-73
2021/07/16 06:59:22;;;;;;;26.93;22.53;;;20.90;99.90;;;;;;4957622;29;20452;-72
2021/07/16 07:01:48;;;;;;;22.07;20.77;;;20.70;99.90;;;;;;4957944;28;20456;-72
2021/07/16 07:04:16;;;;;;;22.17;20.70;;;20.70;99.90;;;;;;4957629;28;20539;-74
2021/07/16 07:06:44;;;;;;;20.87;19.40;;;20.80;99.90;;;;;;4957888;29;20452;-74
2021/07/16 07:09:11;;;;;;;21.40;20.10;;;21.10;99.90;;;;;;4957651;29;20522;-74
2021/07/16 07:11:37;;;;;;;22.60;21.20;;;21.30;99.90;;;;;;4956190;28;20461;-74
2021/07/16 07:14:06;;;;;;;24.90;23.20;;;21.30;99.90;;;;;;4954335;29;20475;-73
2021/07/16 07:16:33;;;;;;;22.30;21.00;;;20.90;99.90;;;;;;4954610;29;20452;-73
2021/07/16 07:19:00;;;;;;;24.10;22.40;;;20.80;99.90;;;;;;4954707;29;20528;-73
2021/07/16 07:21:28;;;;;;;25.13;23.47;;;20.80;99.90;;;;;;4954471;29;20821;-73
2021/07/16 07:23:55;;;;;;;22.07;20.57;;;20.70;99.90;;;;;;4954614;29;20657;-73
2021/07/16 07:26:21;;;;;;;21.90;20.50;;;21.00;99.90;;;;;;4954676;29;20464;-73
2021/07/16 07:28:48;;;;;;;20.33;19.13;;;21.60;99.90;;;;;;4954719;29;20934;-71
2021/07/16 07:31:15;;;;;;;23.43;22.03;;;21.70;99.90;;;;;;4954276;29;20456;-73
2021/07/16 07:33:42;;;;;;;21.80;20.50;;;21.90;99.90;;;;;;4953893;29;20862;-74
2021/07/16 07:36:09;;;;;;;21.87;20.37;;;22.50;99.90;;;;;;4954249;29;20975;-73
2021/07/16 07:38:45;;;;;;;20.37;19.00;;;23.20;99.90;;;;;;4954345;29;20515;-74
2021/07/16 07:41:11;;;;;;;21.87;20.40;;;24.10;99.90;;;;;;4954025;29;20448;-74
2021/07/16 07:43:38;;;;;;;21.10;19.90;;;24.60;99.90;;;;;;4953820;29;20456;-73
2021/07/16 07:46:06;;;;;;;20.77;19.67;;;24.90;99.90;;;;;;4953903;28;20998;-72
2021/07/16 07:48:33;;;;;;;21.40;20.20;;;24.90;99.90;;;;;;4954103;29;20563;-72
2021/07/16 07:50:59;;;;;;;20.90;19.73;;;24.50;99.90;;;;;;4953599;29;20456;-71
2021/07/16 07:53:26;;;;;;;19.70;18.60;;;24.40;99.90;;;;;;4953438;29;20520;-72
2021/07/16 07:55:54;;;;;;;20.70;19.40;;;24.60;99.90;;;;;;4953567;29;20810;-72
2021/07/16 07:58:21;;;;;;;20.03;18.93;;;24.60;99.90;;;;;;4953579;29;20453;-73
2021/07/16 08:00:48;;;;;;;19.53;18.53;;;24.10;99.90;;;;;;4953479;29;20456;-74
2021/07/16 08:03:49;;;;;;;20.60;19.40;;;23.90;99.90;;;;;;4951119;29;20465;-73
2021/07/16 08:06:15;;;;;;;19.37;18.30;;;23.60;99.90;;;;;;4951474;29;20467;-76
2021/07/16 08:08:42;;;;;;;19.97;18.97;;;23.40;99.90;;;;;;4953853;29;20527;-73
2021/07/16 08:11:10;;;;;;;19.47;18.33;;;23.40;99.90;;;;;;4951810;29;20812;-75
2021/07/16 08:13:37;;;;;;;18.80;17.90;;;23.50;99.90;;;;;;4953444;29;20488;-73
2021/07/16 08:16:05;;;;;;;19.13;18.13;;;23.60;99.90;;;;;;4953919;29;20939;-73
2021/07/16 08:18:31;;;;;;;17.67;16.60;;;23.20;99.90;;;;;;4953996;29;20452;-73
2021/07/16 08:20:58;;;;;;;17.37;16.47;;;23.30;99.90;;;;;;4953775;29;20460;-74
2021/07/16 08:23:25;;;;;;;19.20;18.23;;;23.40;99.90;;;;;;4953572;28;20527;-73
2021/07/16 08:25:51;;;;;;;18.33;17.00;;;23.40;99.90;;;;;;4953449;29;20823;-74
2021/07/16 08:28:19;;;;;;;18.20;17.10;;;23.40;99.90;;;;;;4953779;29;20508;-73
2021/07/16 08:30:46;;;;;;;17.13;16.23;;;23.60;99.90;;;;;;4953755;29;20957;-73
2021/07/16 08:33:13;;;;;;;17.53;16.60;;;23.70;99.90;;;;;;4953219;29;20488;-74
2021/07/16 08:35:40;;;;;;;18.10;17.00;;;23.60;99.90;;;;;;4953794;29;20441;-73
2021/07/16 08:38:07;;;;;;;18.37;17.33;;;23.70;99.90;;;;;;4953484;29;20868;-74
2021/07/16 08:40:34;;;;;;;18.07;17.27;;;24.10;99.90;;;;;;4954297;29;20859;-73
2021/07/16 08:43:00;;;;;;;17.40;16.50;;;23.80;99.90;;;;;;4953737;29;20852;-74
2021/07/16 08:45:29;;;;;;;17.73;16.83;;;23.90;99.90;;;;;;4953600;28;20503;-76
2021/07/16 08:47:56;;;;;;;18.17;17.17;;;24.50;99.90;;;;;;4953610;29;20737;-76
2021/07/16 08:50:25;;;;;;;16.00;15.30;;;25.30;99.90;;;;;;4953566;29;20453;-74
2021/07/16 08:52:58;;;;;;;17.83;16.93;;;26.90;99.90;;;;;;4953622;29;21069;-77
2021/07/16 08:55:25;;;;;;;16.43;15.73;;;28.10;99.50;;;;;;4953791;29;20769;-76
2021/07/16 08:57:52;;;;;;;16.97;16.23;;;29.40;97.10;;;;;;4953799;29;20463;-75
2021/07/16 09:00:18;;;;;;;17.07;16.37;;;29.30;95.60;;;;;;4945193;28;20594;-74
2021/07/16 09:02:52;;;;;;;17.60;16.90;;;29.20;96.40;;;;;;4934454;29;20458;-75
2021/07/16 09:05:19;;;;;;;17.93;17.03;;;29.30;96.10;;;;;;4952885;28;20495;-75
2021/07/16 09:07:49;;;;;;;18.33;17.53;;;29.50;96.00;;;;;;4956249;28;20459;-76
2021/07/16 09:10:21;;;;;;;18.50;16.83;;;29.70;93.70;;;;;;4968219;28;20968;-76
2021/07/16 09:12:56;;;;;;;16.77;16.07;;;30.20;94.10;;;;;;4971362;28;20779;-75
2021/07/16 09:15:23;;;;;;;16.73;16.10;;;30.70;92.80;;;;;;4952844;29;20474;-77
2021/07/16 09:17:53;;;;;;;16.40;15.60;;;30.30;93.40;;;;;;4952891;29;20489;-77
2021/07/16 09:20:24;;;;;;;17.23;16.53;;;30.30;92.50;;;;;;4952985;29;20468;-77
2021/07/16 09:23:10;;;;;;;17.17;16.30;;;30.10;93.20;;;;;;4966283;28;20534;-77
2021/07/16 09:25:37;;;;;;;17.80;17.00;;;30.70;92.10;;;;;;4972521;28;20444;-78
2021/07/16 09:28:04;;;;;;;17.07;16.37;;;31.80;90.90;;;;;;4972569;28;20452;-78
2021/07/16 09:30:31;;;;;;;17.30;16.50;;;32.60;88.10;;;;;;4972556;28;20470;-78
2021/07/16 09:33:02;;;;;;;16.03;15.33;;;33.00;85.80;;;;;;4966388;28;20484;-77
2021/07/16 09:35:32;;;;;;;18.17;17.13;;;31.80;88.00;;;;;;4952666;28;20552;-77
2021/07/16 09:38:03;;;;;;;17.20;16.20;;;30.60;90.90;;;;;;4952797;29;20934;-76
2021/07/16 09:40:33;;;;;;;16.73;16.13;;;30.10;91.70;;;;;;4970474;28;20444;-76
2021/07/16 09:43:01;;;;;;;17.93;17.07;;;29.70;92.10;;;;;;4971680;28;20479;-76
2021/07/16 09:45:28;;;;;;;18.23;17.43;;;29.10;92.50;;;;;;4971804;28;20478;-76
2021/07/16 09:47:55;;;;;;;18.43;17.53;;;28.80;93.90;;;;;;4972052;28;20459;-76
2021/07/16 09:50:25;;;;;;;17.00;16.40;;;28.80;93.80;;;;;;4971844;28;20456;-77
2021/07/16 09:53:14;;;;;;;16.77;16.07;;;29.10;93.20;;;;;;4971917;28;20514;-78
2021/07/16 09:55:42;;;;;;;17.70;16.90;;;29.50;92.90;;;;;;4971856;28;20506;-78
2021/07/16 09:58:24;;;;;;;16.20;15.60;;;30.90;90.90;;;;;;4972256;28;20823;-77
2021/07/16 10:00:52;;;;;;;17.90;16.90;;;32.30;87.30;;;;;;4954706;28;20460;-77
2021/07/16 10:03:20;;;;;;;17.83;17.07;;;33.00;84.90;;;;;;4952752;29;20448;-77
2021/07/16 10:05:50;;;;;;;16.10;15.50;;;31.90;85.60;;;;;;4952364;29;20452;-76
2021/07/16 10:08:17;;;;;;;15.93;15.20;;;30.20;89.90;;;;;;4952777;29;20889;-77
2021/07/16 10:10:46;;;;;;;16.27;15.67;;;30.10;91.20;;;;;;4952377;29;21086;-76
2021/07/16 10:13:13;;;;;;;16.67;15.97;;;29.90;90.90;;;;;;4952151;29;20496;-76
2021/07/16 10:15:42;;;;;;;15.50;14.90;;;29.50;91.20;;;;;;4952028;29;20856;-76
2021/07/16 10:18:09;;;;;;;16.10;15.50;;;28.90;92.00;;;;;;4952319;29;20456;-78
2021/07/16 10:20:37;;;;;;;15.30;14.80;;;28.90;92.40;;;;;;4952258;29;20456;-78
2021/07/16 10:23:06;;;;;;;15.43;14.83;;;29.40;91.30;;;;;;4950179;28;20974;-78
2021/07/16 10:25:33;;;;;;;15.77;15.17;;;30.60;90.90;;;;;;4952020;29;20515;-78
2021/07/16 10:28:00;;;;;;;16.20;15.60;;;32.10;86.30;;;;;;4948037;29;20962;-78
2021/07/16 10:30:33;;;;;;;15.70;15.10;;;32.80;82.90;;;;;;4952074;29;20941;-78
2021/07/16 10:33:00;;;;;;;16.40;15.70;;;32.40;83.60;;;;;;4952414;29;20484;-77
2021/07/16 10:35:29;;;;;;;15.33;14.70;;;32.20;83.80;;;;;;4952205;29;20461;-77
2021/07/16 10:37:58;;;;;;;15.93;15.33;;;31.00;87.00;;;;;;4952183;29;20544;-76
2021/07/16 10:40:40;;;;;;;15.30;14.70;;;30.00;89.80;;;;;;4952001;29;20468;-77
2021/07/16 10:43:08;;;;;;;15.07;14.57;;;30.30;87.80;;;;;;4952122;29;20484;-78
2021/07/16 10:45:37;;;;;;;15.10;14.50;;;31.00;85.90;;;;;;4952019;29;20886;-78
2021/07/16 10:48:43;;;;;;;15.73;15.13;;;31.80;84.40;;;;;;4953587;28;20456;-79
2021/07/16 10:51:23;;;;;;;16.00;15.30;;;32.80;83.20;;;;;;4952421;29;20807;-77
2021/07/16 10:53:50;;;;;;;15.70;15.20;;;33.30;79.80;;;;;;4952671;29;21006;-78
2021/07/16 10:56:19;;;;;;;17.33;16.57;;;33.30;78.20;;;;;;4954423;29;20463;-78
2021/07/16 10:58:49;;;;;;;16.30;15.70;;;33.70;77.90;;;;;;4954243;29;20487;-77
2021/07/16 11:01:32;;;;;;;16.53;15.93;;;33.90;77.60;;;;;;4954351;29;20461;-77
2021/07/16 11:04:01;;;;;;;16.27;15.67;;;33.10;77.60;;;;;;4953421;29;20451;-77
2021/07/16 11:06:51;;;;;;;15.93;15.27;;;32.40;79.40;;;;;;4954114;29;20543;-76
2021/07/16 11:09:32;;;;;;;15.30;14.70;;;31.40;81.90;;;;;;4953392;29;20495;-77
2021/07/16 11:12:21;;;;;;;13.87;13.37;;;31.20;83.40;;;;;;4953654;29;20457;-77
2021/07/16 11:14:47;;;;;;;14.07;13.57;;;31.00;83.20;;;;;;4951902;29;20488;-77
2021/07/16 11:17:26;;;;;;;15.20;14.70;;;30.80;84.80;;;;;;4953888;29;20448;-78
2021/07/16 11:20:17;;;;;;;14.83;14.30;;;32.30;81.50;;;;;;4952482;29;20840;-78
2021/07/16 11:23:04;;;;;;;15.40;14.90;;;32.50;81.00;;;;;;4950906;29;20445;-79
2021/07/16 11:25:32;;;;;;;14.33;13.80;;;32.20;81.00;;;;;;4951640;28;20452;-77
2021/07/16 11:28:00;;;;;;;14.00;13.50;;;32.20;80.30;;;;;;4952816;29;20450;-78
2021/07/16 11:30:28;;;;;;;14.70;14.03;;;32.30;80.30;;;;;;4952709;29;20444;-77
2021/07/16 11:33:05;;;;;;;15.33;14.83;;;32.60;79.30;;;;;;4953882;29;20480;-79
2021/07/16 11:35:33;;;;;;;14.23;13.83;;;32.50;77.10;;;;;;4954706;29;20503;-79
2021/07/16 11:38:05;;;;;;;13.40;13.00;;;31.90;76.70;;;;;;4954238;29;20492;-78
2021/07/16 11:40:31;;;;;;;14.33;13.93;;;30.50;79.40;;;;;;4954799;29;20551;-79
2021/07/16 11:43:00;;;;;;;13.80;13.40;;;30.70;79.40;;;;;;4954355;29;20451;-78
2021/07/16 11:45:29;;;;;;;14.17;13.67;;;30.10;82.30;;;;;;4953947;29;20564;-77
2021/07/16 11:47:57;;;;;;;14.80;14.30;;;30.40;82.50;;;;;;4953835;29;20452;-79
2021/07/16 11:50:24;;;;;;;14.40;13.90;;;31.30;79.80;;;;;;4954469;28;20925;-77
2021/07/16 11:52:52;;;;;;;13.97;13.47;;;31.60;78.60;;;;;;4954072;29;20448;-78
2021/07/16 11:55:22;;;;;;;14.47;13.63;;;32.20;78.00;;;;;;4954355;29;20492;-77
2021/07/16 11:57:50;;;;;;;14.03;13.50;;;33.00;77.10;;;;;;4953673;28;20449;-77
2021/07/16 12:00:19;;;;;;;13.23;12.83;;;32.40;76.10;;;;;;4954229;29;20851;-76
2021/07/16 12:02:46;;;;;;;13.63;13.13;;;31.90;77.20;;;;;;4953757;29;20459;-76
2021/07/16 12:05:14;;;;;;;14.73;14.13;;;31.20;81.10;;;;;;4953674;29;20456;-76
2021/07/16 12:07:44;;;;;;;13.07;12.57;;;30.40;82.60;;;;;;4953837;29;20963;-76
2021/07/16 12:10:13;;;;;;;14.00;13.40;;;29.50;85.40;;;;;;4953608;29;20974;-76
2021/07/16 12:12:40;;;;;;;13.70;13.20;;;29.20;86.70;;;;;;4953564;29;20460;-76
2021/07/16 12:15:08;;;;;;;14.13;13.63;;;29.00;88.40;;;;;;4953319;29;20548;-76
2021/07/16 12:17:39;;;;;;;14.50;13.90;;;29.30;87.20;;;;;;4953853;29;20456;-76
2021/07/16 12:20:08;;;;;;;13.50;13.00;;;29.30;88.50;;;;;;4953392;29;20460;-76
2021/07/16 12:22:36;;;;;;;14.70;14.10;;;29.60;88.00;;;;;;4953917;29;20462;-76
2021/07/16 12:25:07;;;;;;;13.07;12.63;;;30.00;86.20;;;;;;4953246;29;20453;-74
2021/07/16 12:27:34;;;;;;;13.80;13.20;;;30.20;86.10;;;;;;4953601;29;20515;-75
2021/07/16 12:30:03;;;;;;;13.70;13.20;;;29.70;88.50;;;;;;4953495;29;20511;-75
2021/07/16 12:32:37;;;;;;;13.50;13.00;;;29.00;90.00;;;;;;4953447;29;20452;-75
2021/07/16 12:35:28;;;;;;;13.17;12.77;;;28.10;90.90;;;;;;4953357;29;20496;-74
2021/07/16 12:38:01;;;;;;;13.50;13.00;;;27.10;92.00;;;;;;4943398;29;20460;-75
2021/07/16 12:40:28;;;;;;;13.47;12.97;;;26.50;94.10;;;;;;4952952;29;20503;-76
2021/07/16 12:43:04;;;;;;;13.87;13.27;;;25.90;95.20;;;;;;4953192;29;20452;-75
2021/07/16 12:45:46;;;;;;;12.77;12.27;;;25.70;96.40;;;;;;4952795;29;20460;-74
2021/07/16 12:48:19;;;;;;;13.93;13.07;;;25.60;96.60;;;;;;4953090;29;20563;-74
2021/07/16 12:50:47;;;;;;;13.67;12.97;;;25.70;96.70;;;;;;4952961;29;20484;-75
2021/07/16 12:53:28;;;;;;;13.70;13.20;;;25.60;97.20;;;;;;4953051;29;20511;-75
2021/07/16 12:56:14;;;;;;;13.13;12.63;;;25.70;97.30;;;;;;4952938;29;20908;-75
2021/07/16 12:58:41;;;;;;;12.57;11.97;;;26.00;97.20;;;;;;4953010;29;20456;-74
2021/07/16 13:01:08;;;;;;;13.60;13.00;;;26.30;95.90;;;;;;4952567;29;20456;-76
2021/07/16 13:03:40;;;;;;;14.90;14.10;;;26.50;95.50;;;;;;4953274;29;20465;-74
2021/07/16 13:06:23;;;;;;;13.73;13.13;;;26.60;95.30;;;;;;4952727;29;20474;-74
2021/07/16 13:09:09;;;;;;;13.60;13.00;;;26.80;95.40;;;;;;4953052;29;20460;-74
2021/07/16 13:11:36;;;;;;;13.80;13.20;;;26.90;95.00;;;;;;4952140;29;20462;-75
2021/07/16 13:14:03;;;;;;;13.10;12.53;;;27.50;94.80;;;;;;4952909;29;20488;-74
2021/07/16 13:16:30;;;;;;;13.73;13.23;;;28.60;93.30;;;;;;4952352;29;20453;-75
2021/07/16 13:18:59;;;;;;;13.53;12.93;;;30.20;91.00;;;;;;4952696;29;20459;-75
2021/07/16 13:21:27;;;;;;;14.00;13.30;;;30.70;87.10;;;;;;4952870;29;20463;-75
2021/07/16 13:23:54;;;;;;;13.80;13.20;;;30.50;87.40;;;;;;4952204;29;20544;-74
2021/07/16 13:26:31;;;;;;;13.13;12.60;;;30.50;86.60;;;;;;4952689;29;20452;-74
2021/07/16 13:28:58;;;;;;;13.33;12.83;;;29.60;89.00;;;;;;4952166;29;20844;-75
2021/07/16 13:31:25;;;;;;;13.70;13.20;;;29.70;89.10;;;;;;4952362;29;20711;-77
2021/07/16 13:33:52;;;;;;;14.27;13.70;;;29.70;89.50;;;;;;4952376;29;21034;-75
2021/07/16 13:36:20;;;;;;;14.47;13.93;;;29.60;89.70;;;;;;4953039;29;20456;-75
2021/07/16 13:38:46;;;;;;;13.07;12.50;;;29.50;90.30;;;;;;4952894;29;20468;-74
2021/07/16 13:41:13;;;;;;;13.53;13.13;;;30.10;89.40;;;;;;4952482;29;20449;-75
2021/07/16 13:43:40;;;;;;;12.63;12.23;;;30.90;87.20;;;;;;4952391;29;20475;-75
2021/07/16 13:46:07;;;;;;;14.53;13.93;;;31.50;86.00;;;;;;4952087;29;20492;-76
2021/07/16 13:48:34;;;;;;;14.43;13.93;;;32.00;83.00;;;;;;4952426;29;20507;-76
2021/07/16 13:51:01;;;;;;;13.75;13.15;;;31.90;82.10;;;;;;4952147;29;20459;-74
2021/07/16 13:53:29;;;;;;;13.33;12.83;;;32.20;81.60;;;;;;4952329;29;20679;-74
2021/07/16 13:55:55;;;;;;;12.80;12.40;;;31.60;81.80;;;;;;4952538;29;20487;-65
2021/07/16 13:58:22;;;;;;;13.50;13.00;;;30.50;84.90;;;;;;4952525;29;20449;-73
2021/07/16 14:00:49;;;;;;;13.20;12.60;;;29.90;87.20;;;;;;4952421;29;20893;-74
2021/07/16 14:03:15;;;;;;;13.80;13.33;;;29.70;87.70;;;;;;4952249;29;20864;-76
2021/07/16 14:05:42;;;;;;;13.27;12.87;;;29.40;88.10;;;;;;4948462;29;21110;-77
2021/07/16 14:08:09;;;;;;;15.03;14.33;;;28.80;90.90;;;;;;4951906;29;21009;-76
2021/07/16 14:10:37;;;;;;;14.10;13.37;;;28.00;92.70;;;;;;4951784;29;20456;-74
2021/07/16 14:13:04;;;;;;;12.83;12.33;;;26.90;92.30;;;;;;4952181;29;20461;-76
2021/07/16 14:15:30;;;;;;;13.00;12.50;;;26.60;93.20;;;;;;4951419;29;20871;-76
2021/07/16 14:17:57;;;;;;;12.50;12.10;;;26.40;93.70;;;;;;4952488;29;20886;-77
2021/07/16 14:20:24;;;;;;;12.70;12.10;;;26.40;93.80;;;;;;4951805;29;20465;-75
2021/07/16 14:22:53;;;;;;;12.60;12.10;;;26.50;93.60;;;;;;4955028;28;20456;-77
2021/07/16 14:25:20;;;;;;;12.67;12.27;;;26.80;93.60;;;;;;4956021;29;20457;-75
2021/07/16 14:27:48;;;;;;;12.93;12.50;;;27.20;92.60;;;;;;4956052;29;20946;-75
2021/07/16 14:30:16;;;;;;;13.93;13.23;;;27.30;93.40;;;;;;4955446;29;20449;-76
2021/07/16 14:32:44;;;;;;;12.77;12.37;;;27.20;93.20;;;;;;4955683;29;20960;-76
2021/07/16 14:35:12;;;;;;;13.23;12.63;;;27.20;92.80;;;;;;4955716;29;20488;-76
2021/07/16 14:37:40;;;;;;;12.90;12.50;;;27.10;93.10;;;;;;4955828;29;20955;-75
2021/07/16 14:40:09;;;;;;;12.97;12.37;;;27.10;93.50;;;;;;4955737;29;20456;-76
2021/07/16 14:42:36;;;;;;;12.07;11.67;;;26.90;93.20;;;;;;4955725;29;20471;-75
2021/07/16 14:45:05;;;;;;;12.80;12.40;;;26.40;93.80;;;;;;4955748;29;20483;-75
2021/07/16 14:47:32;;;;;;;12.73;12.20;;;26.00;94.70;;;;;;4955604;29;20515;-75
2021/07/16 14:50:00;;;;;;;13.20;12.80;;;26.30;94.90;;;;;;4955508;29;20955;-75
2021/07/16 14:52:27;;;;;;;13.80;13.30;;;26.40;94.90;;;;;;4955164;29;21162;-76
2021/07/16 14:54:54;;;;;;;12.50;12.10;;;26.00;95.80;;;;;;4954374;29;20495;-75
2021/07/16 14:57:20;;;;;;;11.57;11.17;;;25.60;96.60;;;;;;4954030;29;20539;-75
2021/07/16 14:59:47;;;;;;;12.20;11.80;;;25.40;97.00;;;;;;4953161;29;20520;-75
2021/07/16 15:02:15;;;;;;;12.53;12.13;;;25.50;97.40;;;;;;4954612;29;20453;-75
2021/07/16 15:04:42;;;;;;;12.80;12.40;;;25.90;97.30;;;;;;4955109;29;20448;-75
2021/07/16 15:07:09;;;;;;;13.23;12.53;;;26.20;95.40;;;;;;4955527;29;20499;-74
2021/07/16 15:09:36;;;;;;;12.40;12.00;;;26.40;95.30;;;;;;4955607;29;20464;-76
2021/07/16 15:12:03;;;;;;;13.10;12.70;;;26.80;95.50;;;;;;4955659;29;20503;-75
2021/07/16 15:14:30;;;;;;;13.53;13.03;;;26.90;94.90;;;;;;4953557;29;20496;-75
2021/07/16 15:16:57;;;;;;;14.07;13.53;;;27.00;94.50;;;;;;4954988;29;20456;-76
2021/07/16 15:19:26;;;;;;;13.40;12.90;;;26.80;93.70;;;;;;4954971;29;20538;-76
2021/07/16 15:21:53;;;;;;;13.83;13.20;;;27.00;93.80;;;;;;4955121;29;20538;-75